Weather Data

Pearl Creek Farm: 8878 N Farm Road 75, Walnut Grove MO 65770

<== Previous Day (Tuesday 10 Mar 2009) | Next Day (Thursday 12 Mar 2009) ==>

Summary Precipitation Data For Wednesday 11 March 2009

ElementValueUnits
Precipitation0"
Notes(none)
SourceSpringfield-Branson National Airport (SGF)

Summary Temperature Data For Wednesday 11 March 2009

ElementValueUnits
High Temperature37 oF
Low Temperature23 oF
Average Temperature30 oF
High Humidity81 %
Low Humidity48 %
Average Humidity62 %
SourceSpringfield-Branson National Airport (SGF)

Detail Temperature Data For Wednesday 11 March 2009

Date / TimeTemp (F)RH (%)Dew Pt (F)Report Date / TimeSource
2009-03-11 00:52:00 28 78 22.0 2017-12-29 19:14:24.89625 Springfield-Branson National Airport (SGF)
2009-03-11 01:52:00 27 78 21.0 2017-12-29 19:14:24.89625 Springfield-Branson National Airport (SGF)
2009-03-11 02:52:00 26 81 21.0 2017-12-29 19:14:24.89625 Springfield-Branson National Airport (SGF)
2009-03-11 03:52:00 26 66 16.0 2017-12-29 19:14:24.89625 Springfield-Branson National Airport (SGF)
2009-03-11 04:52:00 24 68 15.0 2017-12-29 19:14:24.89625 Springfield-Branson National Airport (SGF)
2009-03-11 05:52:00 23 72 15.0 2017-12-29 19:14:24.89625 Springfield-Branson National Airport (SGF)
2009-03-11 06:52:00 23 74 16.0 2017-12-29 19:14:24.89625 Springfield-Branson National Airport (SGF)
2009-03-11 07:52:00 24 68 15.0 2017-12-29 19:14:24.89625 Springfield-Branson National Airport (SGF)
2009-03-11 08:52:00 26 63 15.0 2017-12-29 19:14:24.89625 Springfield-Branson National Airport (SGF)
2009-03-11 09:52:00 26 63 15.0 2017-12-29 19:14:24.89625 Springfield-Branson National Airport (SGF)
2009-03-11 10:52:00 27 61 15.0 2017-12-29 19:14:24.89625 Springfield-Branson National Airport (SGF)
2009-03-11 11:52:00 30 58 17.0 2017-12-29 19:14:24.89625 Springfield-Branson National Airport (SGF)
2009-03-11 12:52:00 32 56 18.0 2017-12-29 19:14:24.89625 Springfield-Branson National Airport (SGF)
2009-03-11 13:52:00 36 50 19.0 2017-12-29 19:14:24.89625 Springfield-Branson National Airport (SGF)
2009-03-11 14:52:00 37 48 19.0 2017-12-29 19:14:24.89625 Springfield-Branson National Airport (SGF)
2009-03-11 15:52:00 36 48 18.0 2017-12-29 19:14:24.89625 Springfield-Branson National Airport (SGF)
2009-03-11 16:52:00 36 48 18.0 2017-12-29 19:14:24.89625 Springfield-Branson National Airport (SGF)
2009-03-11 17:52:00 33 54 18.0 2017-12-29 19:14:24.89625 Springfield-Branson National Airport (SGF)
2009-03-11 18:52:00 33 52 17.0 2017-12-29 19:14:24.89625 Springfield-Branson National Airport (SGF)
2009-03-11 19:52:00 33 54 18.0 2017-12-29 19:14:24.89625 Springfield-Branson National Airport (SGF)
2009-03-11 20:52:00 31 59 18.0 2017-12-29 19:14:24.89625 Springfield-Branson National Airport (SGF)
2009-03-11 21:52:00 31 59 18.0 2017-12-29 19:14:24.89625 Springfield-Branson National Airport (SGF)
2009-03-11 22:52:00 30 61 18.0 2017-12-29 19:14:24.89625 Springfield-Branson National Airport (SGF)
2009-03-11 23:52:00 30 61 18.0 2017-12-29 19:14:24.89625 Springfield-Branson National Airport (SGF)

A total of 24 rows are displayed.